UAE502 OMDB-VABB
Flight info
| Callsign | UAE502 |
|---|---|
| Flight time | 2h 35m |
| Altitude | 41000 |
| Route | IVURO M677 LALDO B505 NADSO A777 VAXIM L301 KARKU M638 EXOLU POKON2A |
| Aircraft | A359/H-SDE2E3GHIJ1J3J4J5LM1ORWXY/LB1D1 |
Departure
| Time | 2026-05-08 07:47 |
|---|---|
| Airport | Dubai International Airport (OMDB) |
Arrival
| Time | 2026-05-08 10:22 |
|---|---|
| Airport | Chhatrapati Shivaji Maharaj International Airport (VABB) |
| Time | Latitude | Longitude | Altitude | Speed | Heading |
|---|---|---|---|---|---|
| 2026-05-08 07:12 | 25.24560 | 55.36493 | 27 ft | 0 kts | 31° |
| 2026-05-08 07:36 | 25.24539 | 55.36479 | 26 ft | 4 kts | 31° |
| 2026-05-08 07:36 | 25.24517 | 55.36464 | 27 ft | 2 kts | 31° |
| 2026-05-08 07:36 | 25.24500 | 55.36449 | 27 ft | 4 kts | 66° |
| 2026-05-08 07:36 | 25.24498 | 55.36423 | 27 ft | 4 kts | 110° |
| 2026-05-08 07:37 | 25.24509 | 55.36398 | 27 ft | 4 kts | 122° |
| 2026-05-08 07:37 | 25.24522 | 55.36375 | 27 ft | 1 kts | 122° |
| 2026-05-08 07:39 | 25.24521 | 55.36377 | 27 ft | 1 kts | 122° |
| 2026-05-08 07:40 | 25.24507 | 55.36401 | 27 ft | 7 kts | 122° |
| 2026-05-08 07:40 | 25.24473 | 55.36462 | 27 ft | 11 kts | 122° |
| 2026-05-08 07:40 | 25.24448 | 55.36545 | 27 ft | 12 kts | 93° |
| 2026-05-08 07:40 | 25.24477 | 55.36640 | 27 ft | 14 kts | 54° |
| 2026-05-08 07:41 | 25.24558 | 55.36711 | 27 ft | 16 kts | 31° |
| 2026-05-08 07:41 | 25.24656 | 55.36778 | 27 ft | 17 kts | 32° |
| 2026-05-08 07:41 | 25.24724 | 55.36865 | 28 ft | 15 kts | 88° |
| 2026-05-08 07:41 | 25.24683 | 55.36971 | 28 ft | 16 kts | 120° |
| 2026-05-08 07:42 | 25.24621 | 55.37082 | 28 ft | 18 kts | 122° |
| 2026-05-08 07:42 | 25.24552 | 55.37205 | 27 ft | 20 kts | 122° |
| 2026-05-08 07:42 | 25.24476 | 55.37340 | 27 ft | 21 kts | 122° |
| 2026-05-08 07:42 | 25.24397 | 55.37484 | 27 ft | 23 kts | 121° |
| 2026-05-08 07:43 | 25.24315 | 55.37626 | 27 ft | 17 kts | 122° |
| 2026-05-08 07:43 | 25.24262 | 55.37729 | 27 ft | 12 kts | 104° |
| 2026-05-08 07:43 | 25.24300 | 55.37796 | 28 ft | 11 kts | 35° |
| 2026-05-08 07:43 | 25.24366 | 55.37847 | 28 ft | 12 kts | 34° |
| 2026-05-08 07:44 | 25.24446 | 55.37908 | 31 ft | 15 kts | 34° |
| 2026-05-08 07:44 | 25.24537 | 55.37977 | 30 ft | 17 kts | 34° |
| 2026-05-08 07:44 | 25.24645 | 55.38055 | 30 ft | 19 kts | 30° |
| 2026-05-08 07:44 | 25.24736 | 55.38111 | 32 ft | 10 kts | 25° |
| 2026-05-08 07:45 | 25.24747 | 55.38116 | 32 ft | 0 kts | 13° |
| 2026-05-08 07:45 | 25.24748 | 55.38116 | 32 ft | 0 kts | 13° |
| 2026-05-08 07:45 | 25.24749 | 55.38115 | 32 ft | 1 kts | 4° |
| 2026-05-08 07:45 | 25.24754 | 55.38110 | 32 ft | 1 kts | 324° |
| 2026-05-08 07:46 | 25.24763 | 55.38097 | 32 ft | 0 kts | 304° |
| 2026-05-08 07:46 | 25.24859 | 55.37930 | 32 ft | 62 kts | 301° |
| 2026-05-08 07:46 | 25.25207 | 55.37303 | 34 ft | 127 kts | 301° |
| 2026-05-08 07:47 | 25.25767 | 55.36291 | 88 ft | 177 kts | 301° |
| 2026-05-08 07:47 | 25.26376 | 55.35177 | 1010 ft | 162 kts | 300° |
| 2026-05-08 07:47 | 25.26983 | 55.34071 | 1500 ft | 178 kts | 301° |
| 2026-05-08 07:47 | 25.27659 | 55.32858 | 1774 ft | 200 kts | 301° |
| 2026-05-08 07:48 | 25.28443 | 55.31459 | 2155 ft | 219 kts | 301° |
| 2026-05-08 07:48 | 25.29416 | 55.30144 | 2829 ft | 226 kts | 320° |
| 2026-05-08 07:48 | 25.30877 | 55.29481 | 3543 ft | 234 kts | 353° |
| 2026-05-08 07:48 | 25.32509 | 55.29450 | 4324 ft | 235 kts | 360° |
| 2026-05-08 07:49 | 25.34151 | 55.29518 | 5109 ft | 237 kts | 360° |
| 2026-05-08 07:49 | 25.35798 | 55.29586 | 5848 ft | 238 kts | 359° |
| 2026-05-08 07:49 | 25.37457 | 55.29643 | 6534 ft | 239 kts | 358° |
| 2026-05-08 07:49 | 25.39126 | 55.29850 | 7144 ft | 245 kts | 13° |
| 2026-05-08 07:50 | 25.40627 | 55.30795 | 7662 ft | 259 kts | 40° |
| 2026-05-08 07:50 | 25.41862 | 55.32341 | 7978 ft | 277 kts | 49° |
| 2026-05-08 07:50 | 25.43082 | 55.34056 | 8359 ft | 288 kts | 49° |
| 2026-05-08 07:50 | 25.44327 | 55.35804 | 8907 ft | 293 kts | 49° |
| 2026-05-08 07:51 | 25.45174 | 55.36981 | 9297 ft | 294 kts | 49° |
| 2026-05-08 07:51 | 25.46457 | 55.38753 | 9867 ft | 297 kts | 49° |
| 2026-05-08 07:51 | 25.47772 | 55.40566 | 10350 ft | 307 kts | 50° |
| 2026-05-08 07:51 | 25.49140 | 55.42453 | 10640 ft | 322 kts | 51° |
| 2026-05-08 07:52 | 25.50544 | 55.44462 | 10958 ft | 337 kts | 52° |
| 2026-05-08 07:52 | 25.51842 | 55.46684 | 11234 ft | 352 kts | 64° |
| 2026-05-08 07:52 | 25.52482 | 55.49312 | 11696 ft | 358 kts | 85° |
| 2026-05-08 07:52 | 25.52213 | 55.52040 | 12364 ft | 358 kts | 107° |
| 2026-05-08 07:53 | 25.51145 | 55.54519 | 13129 ft | 358 kts | 120° |
| 2026-05-08 07:53 | 25.49816 | 55.56864 | 13719 ft | 362 kts | 123° |
| 2026-05-08 07:53 | 25.48447 | 55.59219 | 14318 ft | 366 kts | 123° |
| 2026-05-08 07:53 | 25.47071 | 55.61599 | 14915 ft | 369 kts | 123° |
| 2026-05-08 07:54 | 25.45689 | 55.64008 | 15525 ft | 372 kts | 122° |
| 2026-05-08 07:54 | 25.44299 | 55.66436 | 16079 ft | 375 kts | 123° |
| 2026-05-08 07:54 | 25.42975 | 55.68928 | 16649 ft | 379 kts | 116° |
| 2026-05-08 07:54 | 25.42113 | 55.71693 | 17208 ft | 383 kts | 105° |
| 2026-05-08 07:55 | 25.41487 | 55.74569 | 17785 ft | 386 kts | 104° |
| 2026-05-08 07:55 | 25.40885 | 55.77479 | 18324 ft | 389 kts | 104° |
| 2026-05-08 07:55 | 25.40276 | 55.80408 | 18854 ft | 394 kts | 104° |
| 2026-05-08 07:55 | 25.39648 | 55.83376 | 19370 ft | 398 kts | 104° |
| 2026-05-08 07:56 | 25.39012 | 55.86368 | 19893 ft | 402 kts | 104° |
| 2026-05-08 07:56 | 25.38368 | 55.89387 | 20365 ft | 406 kts | 104° |
| 2026-05-08 07:56 | 25.37715 | 55.92444 | 20865 ft | 410 kts | 104° |
| 2026-05-08 07:56 | 25.37057 | 55.95525 | 21355 ft | 414 kts | 104° |
| 2026-05-08 07:57 | 25.36390 | 55.98640 | 21823 ft | 418 kts | 104° |
| 2026-05-08 07:57 | 25.35716 | 56.01779 | 22274 ft | 422 kts | 104° |
| 2026-05-08 07:57 | 25.35036 | 56.04943 | 22722 ft | 425 kts | 104° |
| 2026-05-08 07:57 | 25.34349 | 56.08142 | 23149 ft | 429 kts | 104° |
| 2026-05-08 07:58 | 25.33655 | 56.11367 | 23570 ft | 433 kts | 104° |
| 2026-05-08 07:58 | 25.32980 | 56.14623 | 23974 ft | 437 kts | 102° |
| 2026-05-08 07:58 | 25.32517 | 56.17954 | 24378 ft | 441 kts | 97° |
| 2026-05-08 07:58 | 25.32182 | 56.21332 | 24789 ft | 444 kts | 96° |
| 2026-05-08 07:59 | 25.31910 | 56.24752 | 25198 ft | 449 kts | 95° |
| 2026-05-08 07:59 | 25.31658 | 56.28202 | 25638 ft | 453 kts | 95° |
| 2026-05-08 07:59 | 25.31404 | 56.31678 | 26077 ft | 456 kts | 95° |
| 2026-05-08 07:59 | 25.31137 | 56.35187 | 26500 ft | 460 kts | 96° |
| 2026-05-08 08:00 | 25.30854 | 56.38721 | 26918 ft | 464 kts | 96° |
| 2026-05-08 08:00 | 25.30593 | 56.42234 | 27334 ft | 468 kts | 94° |
| 2026-05-08 08:00 | 25.30447 | 56.45833 | 27756 ft | 471 kts | 92° |
| 2026-05-08 08:00 | 25.30367 | 56.49476 | 28136 ft | 475 kts | 92° |
| 2026-05-08 08:01 | 25.30306 | 56.53135 | 28543 ft | 479 kts | 92° |
| 2026-05-08 08:01 | 25.30191 | 56.56829 | 28906 ft | 482 kts | 96° |
| 2026-05-08 08:01 | 25.29659 | 56.60494 | 29289 ft | 484 kts | 105° |
| 2026-05-08 08:01 | 25.28631 | 56.64036 | 29666 ft | 486 kts | 111° |
| 2026-05-08 08:02 | 25.27414 | 56.67531 | 30043 ft | 488 kts | 113° |
| 2026-05-08 08:02 | 25.26117 | 56.71008 | 30398 ft | 491 kts | 114° |
| 2026-05-08 08:02 | 25.24777 | 56.74489 | 30764 ft | 494 kts | 115° |
| 2026-05-08 08:02 | 25.23441 | 56.77929 | 31130 ft | 496 kts | 115° |
| 2026-05-08 08:03 | 25.22086 | 56.81430 | 31527 ft | 497 kts | 115° |
| 2026-05-08 08:03 | 25.20730 | 56.84955 | 31833 ft | 500 kts | 115° |
| 2026-05-08 08:03 | 25.19373 | 56.88501 | 32157 ft | 502 kts | 114° |
| 2026-05-08 08:03 | 25.18015 | 56.92061 | 32484 ft | 504 kts | 114° |
| 2026-05-08 08:04 | 25.16655 | 56.95632 | 32786 ft | 506 kts | 115° |
| 2026-05-08 08:04 | 25.15289 | 56.99220 | 33058 ft | 508 kts | 115° |
| 2026-05-08 08:04 | 25.13918 | 57.02817 | 33326 ft | 510 kts | 115° |
| 2026-05-08 08:04 | 25.12538 | 57.06435 | 33588 ft | 512 kts | 115° |
| 2026-05-08 08:05 | 25.11152 | 57.10061 | 33881 ft | 513 kts | 115° |
| 2026-05-08 08:05 | 25.09766 | 57.13687 | 34225 ft | 513 kts | 115° |
| 2026-05-08 08:05 | 25.08381 | 57.17308 | 34598 ft | 511 kts | 115° |
| 2026-05-08 08:05 | 25.06999 | 57.20920 | 34914 ft | 511 kts | 115° |
| 2026-05-08 08:06 | 25.05615 | 57.24530 | 35215 ft | 511 kts | 115° |
| 2026-05-08 08:06 | 25.04231 | 57.28138 | 35529 ft | 510 kts | 115° |
| 2026-05-08 08:06 | 25.02848 | 57.31738 | 35811 ft | 510 kts | 115° |
| 2026-05-08 08:06 | 25.01463 | 57.35337 | 36107 ft | 509 kts | 115° |
| 2026-05-08 08:07 | 25.00080 | 57.38930 | 36385 ft | 509 kts | 115° |
| 2026-05-08 08:07 | 24.98698 | 57.42517 | 36656 ft | 509 kts | 115° |
| 2026-05-08 08:07 | 24.97312 | 57.46111 | 36942 ft | 508 kts | 115° |
| 2026-05-08 08:07 | 24.95934 | 57.49682 | 37320 ft | 504 kts | 115° |
| 2026-05-08 08:08 | 24.94568 | 57.53221 | 37683 ft | 501 kts | 115° |
| 2026-05-08 08:08 | 24.93208 | 57.56742 | 37945 ft | 500 kts | 115° |
| 2026-05-08 08:08 | 24.91860 | 57.60227 | 38155 ft | 500 kts | 115° |
| 2026-05-08 08:08 | 24.90478 | 57.63796 | 38366 ft | 500 kts | 115° |
| 2026-05-08 08:09 | 24.89114 | 57.67317 | 38552 ft | 500 kts | 115° |
| 2026-05-08 08:09 | 24.87749 | 57.70838 | 38734 ft | 500 kts | 115° |
| 2026-05-08 08:09 | 24.86400 | 57.74313 | 38930 ft | 500 kts | 115° |
| 2026-05-08 08:09 | 24.85032 | 57.77831 | 39102 ft | 500 kts | 115° |
| 2026-05-08 08:10 | 24.83661 | 57.81356 | 39259 ft | 500 kts | 115° |
| 2026-05-08 08:10 | 24.82282 | 57.84865 | 39459 ft | 500 kts | 116° |
| 2026-05-08 08:10 | 24.80817 | 57.88331 | 39631 ft | 499 kts | 117° |
| 2026-05-08 08:10 | 24.79300 | 57.91762 | 39772 ft | 499 kts | 118° |
| 2026-05-08 08:11 | 24.77764 | 57.95187 | 39928 ft | 499 kts | 118° |
| 2026-05-08 08:11 | 24.76233 | 57.98605 | 40092 ft | 498 kts | 118° |
| 2026-05-08 08:11 | 24.74712 | 58.02023 | 40246 ft | 499 kts | 118° |
| 2026-05-08 08:12 | 24.71674 | 58.08917 | 40402 ft | 501 kts | 117° |
| 2026-05-08 08:12 | 24.70159 | 58.12371 | 40541 ft | 501 kts | 117° |
| 2026-05-08 08:12 | 24.68648 | 58.15822 | 40683 ft | 501 kts | 117° |
| 2026-05-08 08:12 | 24.67139 | 58.19265 | 40785 ft | 501 kts | 117° |
| 2026-05-08 08:13 | 24.65623 | 58.22722 | 40788 ft | 502 kts | 117° |
| 2026-05-08 08:13 | 24.62588 | 58.29629 | 40786 ft | 502 kts | 117° |
| 2026-05-08 08:14 | 24.59559 | 58.36511 | 40795 ft | 501 kts | 118° |
| 2026-05-08 08:14 | 24.56511 | 58.43424 | 40795 ft | 501 kts | 118° |
| 2026-05-08 08:15 | 24.53483 | 58.50280 | 40795 ft | 502 kts | 118° |
| 2026-05-08 08:15 | 24.50440 | 58.57162 | 40795 ft | 502 kts | 118° |
| 2026-05-08 08:16 | 24.47384 | 58.64062 | 40795 ft | 502 kts | 118° |
| 2026-05-08 08:16 | 24.44329 | 58.70950 | 40785 ft | 502 kts | 118° |
| 2026-05-08 08:17 | 24.41270 | 58.77840 | 40786 ft | 502 kts | 117° |
| 2026-05-08 08:17 | 24.38208 | 58.84736 | 40786 ft | 503 kts | 118° |
| 2026-05-08 08:18 | 24.35139 | 58.91625 | 40785 ft | 503 kts | 118° |
| 2026-05-08 08:18 | 24.32066 | 58.98515 | 40785 ft | 503 kts | 118° |
| 2026-05-08 08:19 | 24.28991 | 59.05402 | 40785 ft | 503 kts | 118° |
| 2026-05-08 08:19 | 24.25908 | 59.12298 | 40786 ft | 504 kts | 117° |
| 2026-05-08 08:20 | 24.22825 | 59.19185 | 40786 ft | 503 kts | 117° |
| 2026-05-08 08:20 | 24.19814 | 59.25897 | 40786 ft | 504 kts | 118° |
| 2026-05-08 08:21 | 24.16712 | 59.32787 | 40786 ft | 504 kts | 118° |
| 2026-05-08 08:21 | 24.13612 | 59.39669 | 40785 ft | 504 kts | 118° |
| 2026-05-08 08:22 | 24.10511 | 59.46551 | 40785 ft | 504 kts | 118° |
| 2026-05-08 08:22 | 24.07421 | 59.53412 | 40786 ft | 504 kts | 118° |
| 2026-05-08 08:23 | 24.04305 | 59.60311 | 40785 ft | 504 kts | 118° |
| 2026-05-08 08:23 | 24.01198 | 59.67172 | 40786 ft | 504 kts | 118° |
| 2026-05-08 08:24 | 23.98082 | 59.74047 | 40785 ft | 504 kts | 118° |
| 2026-05-08 08:24 | 23.94975 | 59.80896 | 40785 ft | 504 kts | 118° |
| 2026-05-08 08:25 | 23.91853 | 59.87766 | 40791 ft | 504 kts | 118° |
| 2026-05-08 08:25 | 23.88735 | 59.94620 | 40795 ft | 504 kts | 118° |
| 2026-05-08 08:26 | 23.85612 | 60.01473 | 40795 ft | 504 kts | 118° |
| 2026-05-08 08:26 | 23.82486 | 60.08324 | 40795 ft | 504 kts | 118° |
| 2026-05-08 08:27 | 23.79359 | 60.15166 | 40795 ft | 504 kts | 118° |
| 2026-05-08 08:27 | 23.76225 | 60.22013 | 40795 ft | 504 kts | 118° |
| 2026-05-08 08:28 | 23.73091 | 60.28851 | 40795 ft | 504 kts | 118° |
| 2026-05-08 08:28 | 23.69953 | 60.35687 | 40795 ft | 504 kts | 118° |
| 2026-05-08 08:29 | 23.66833 | 60.42476 | 40795 ft | 504 kts | 118° |
| 2026-05-08 08:29 | 23.63691 | 60.49302 | 40794 ft | 504 kts | 118° |
| 2026-05-08 08:30 | 23.60550 | 60.56115 | 40795 ft | 504 kts | 118° |
| 2026-05-08 08:30 | 23.55820 | 60.66359 | 40810 ft | 504 kts | 118° |
| 2026-05-08 08:31 | 23.52663 | 60.73182 | 40817 ft | 504 kts | 118° |
| 2026-05-08 08:31 | 23.49509 | 60.79991 | 40823 ft | 504 kts | 118° |
| 2026-05-08 08:32 | 23.46350 | 60.86801 | 40827 ft | 503 kts | 118° |
| 2026-05-08 08:32 | 23.43187 | 60.93607 | 40807 ft | 503 kts | 118° |
| 2026-05-08 08:33 | 23.40023 | 61.00409 | 40804 ft | 504 kts | 118° |
| 2026-05-08 08:33 | 23.36854 | 61.07211 | 40807 ft | 504 kts | 118° |
| 2026-05-08 08:34 | 23.33690 | 61.14012 | 40805 ft | 504 kts | 117° |
| 2026-05-08 08:34 | 23.31526 | 61.21259 | 40804 ft | 506 kts | 99° |
| 2026-05-08 08:35 | 23.30656 | 61.28854 | 40804 ft | 507 kts | 96° |
| 2026-05-08 08:35 | 23.30013 | 61.36491 | 40804 ft | 507 kts | 95° |
| 2026-05-08 08:36 | 23.29384 | 61.44117 | 40814 ft | 507 kts | 95° |
| 2026-05-08 08:36 | 23.28720 | 61.51751 | 40813 ft | 507 kts | 96° |
| 2026-05-08 08:37 | 23.28034 | 61.59389 | 40813 ft | 507 kts | 96° |
| 2026-05-08 08:37 | 23.27346 | 61.66962 | 40813 ft | 507 kts | 96° |
| 2026-05-08 08:38 | 23.26649 | 61.74604 | 40813 ft | 507 kts | 96° |
| 2026-05-08 08:38 | 23.26065 | 61.80991 | 40813 ft | 507 kts | 96° |
| 2026-05-08 08:39 | 23.25362 | 61.88644 | 40814 ft | 508 kts | 96° |
| 2026-05-08 08:39 | 23.24660 | 61.96241 | 40813 ft | 508 kts | 96° |
| 2026-05-08 08:40 | 23.23949 | 62.03887 | 40813 ft | 508 kts | 96° |
| 2026-05-08 08:40 | 23.23235 | 62.11536 | 40813 ft | 509 kts | 96° |
| 2026-05-08 08:41 | 23.22517 | 62.19188 | 40813 ft | 509 kts | 96° |
| 2026-05-08 08:41 | 23.21795 | 62.26833 | 40820 ft | 509 kts | 96° |
| 2026-05-08 08:42 | 23.21072 | 62.34456 | 40823 ft | 509 kts | 96° |
| 2026-05-08 08:42 | 23.20340 | 62.42136 | 40823 ft | 509 kts | 96° |
| 2026-05-08 08:43 | 23.19608 | 62.49771 | 40823 ft | 509 kts | 96° |
| 2026-05-08 08:43 | 23.18871 | 62.57423 | 40823 ft | 509 kts | 96° |
| 2026-05-08 08:44 | 23.18130 | 62.65068 | 40823 ft | 509 kts | 96° |
| 2026-05-08 08:44 | 23.17387 | 62.72704 | 40823 ft | 509 kts | 96° |
| 2026-05-08 08:45 | 23.16639 | 62.80354 | 40829 ft | 508 kts | 96° |
| 2026-05-08 08:45 | 23.15888 | 62.87994 | 40860 ft | 509 kts | 96° |
| 2026-05-08 08:46 | 23.15133 | 62.95632 | 40859 ft | 509 kts | 96° |
| 2026-05-08 08:46 | 23.14374 | 63.03275 | 40859 ft | 509 kts | 96° |
| 2026-05-08 08:47 | 23.13612 | 63.10915 | 40860 ft | 509 kts | 96° |
| 2026-05-08 08:47 | 23.12845 | 63.18558 | 40860 ft | 509 kts | 96° |
| 2026-05-08 08:48 | 23.12074 | 63.26210 | 40860 ft | 510 kts | 96° |
| 2026-05-08 08:48 | 23.11299 | 63.33864 | 40860 ft | 510 kts | 96° |
| 2026-05-08 08:49 | 23.10520 | 63.41512 | 40860 ft | 510 kts | 96° |
| 2026-05-08 08:49 | 23.09738 | 63.49165 | 40860 ft | 510 kts | 96° |
| 2026-05-08 08:50 | 23.08952 | 63.56811 | 40861 ft | 510 kts | 96° |
| 2026-05-08 08:50 | 23.08161 | 63.64469 | 40851 ft | 510 kts | 96° |
| 2026-05-08 08:51 | 23.07369 | 63.72109 | 40850 ft | 510 kts | 96° |
| 2026-05-08 08:51 | 23.06570 | 63.79768 | 40850 ft | 510 kts | 96° |
| 2026-05-08 08:52 | 23.05382 | 63.87338 | 40851 ft | 509 kts | 108° |
| 2026-05-08 08:52 | 23.02947 | 63.94540 | 40851 ft | 508 kts | 112° |
| 2026-05-08 08:53 | 23.00268 | 64.01644 | 40851 ft | 508 kts | 113° |
| 2026-05-08 08:53 | 22.97579 | 64.08668 | 40851 ft | 509 kts | 113° |
| 2026-05-08 08:54 | 22.94862 | 64.15811 | 40850 ft | 510 kts | 113° |
| 2026-05-08 08:54 | 22.92183 | 64.22887 | 40850 ft | 509 kts | 113° |
| 2026-05-08 08:55 | 22.89475 | 64.30038 | 40850 ft | 509 kts | 113° |
| 2026-05-08 08:55 | 22.86802 | 64.37084 | 40850 ft | 509 kts | 113° |
| 2026-05-08 08:56 | 22.84100 | 64.44191 | 40851 ft | 509 kts | 113° |
| 2026-05-08 08:56 | 22.81401 | 64.51281 | 40850 ft | 509 kts | 113° |
| 2026-05-08 08:57 | 22.78695 | 64.58378 | 40850 ft | 509 kts | 113° |
| 2026-05-08 08:57 | 22.75990 | 64.65461 | 40850 ft | 509 kts | 113° |
| 2026-05-08 08:58 | 22.73279 | 64.72548 | 40851 ft | 509 kts | 113° |
| 2026-05-08 08:58 | 22.70573 | 64.79611 | 40850 ft | 508 kts | 113° |
| 2026-05-08 08:59 | 22.67855 | 64.86698 | 40850 ft | 508 kts | 113° |
| 2026-05-08 08:59 | 22.65142 | 64.93756 | 40851 ft | 508 kts | 113° |
| 2026-05-08 09:00 | 22.62431 | 65.00801 | 40851 ft | 509 kts | 113° |
| 2026-05-08 09:00 | 22.59700 | 65.07886 | 40850 ft | 509 kts | 113° |
| 2026-05-08 09:01 | 22.56967 | 65.14966 | 40850 ft | 509 kts | 113° |
| 2026-05-08 09:01 | 22.54239 | 65.22021 | 40851 ft | 509 kts | 113° |
| 2026-05-08 09:02 | 22.51500 | 65.29095 | 40850 ft | 509 kts | 113° |
| 2026-05-08 09:02 | 22.48766 | 65.36145 | 40851 ft | 509 kts | 113° |
| 2026-05-08 09:03 | 22.46022 | 65.43210 | 40850 ft | 508 kts | 113° |
| 2026-05-08 09:03 | 22.43281 | 65.50257 | 40850 ft | 508 kts | 113° |
| 2026-05-08 09:04 | 22.40548 | 65.57271 | 40851 ft | 508 kts | 113° |
| 2026-05-08 09:04 | 22.37817 | 65.64271 | 40850 ft | 507 kts | 113° |
| 2026-05-08 09:05 | 22.35069 | 65.71305 | 40850 ft | 507 kts | 113° |
| 2026-05-08 09:05 | 22.32305 | 65.78369 | 40850 ft | 507 kts | 113° |
| 2026-05-08 09:06 | 22.29558 | 65.85377 | 40850 ft | 507 kts | 113° |
| 2026-05-08 09:06 | 22.26826 | 65.92336 | 40851 ft | 506 kts | 113° |
| 2026-05-08 09:07 | 22.24077 | 65.99331 | 40850 ft | 506 kts | 113° |
| 2026-05-08 09:07 | 22.21325 | 66.06323 | 40851 ft | 506 kts | 113° |
| 2026-05-08 09:08 | 22.18568 | 66.13316 | 40850 ft | 506 kts | 113° |
| 2026-05-08 09:08 | 22.15807 | 66.20308 | 40850 ft | 506 kts | 114° |
| 2026-05-08 09:09 | 22.13050 | 66.27267 | 40851 ft | 507 kts | 114° |
| 2026-05-08 09:09 | 22.10434 | 66.33864 | 40851 ft | 507 kts | 114° |
| 2026-05-08 09:10 | 22.07672 | 66.40828 | 40845 ft | 507 kts | 113° |
| 2026-05-08 09:10 | 22.04902 | 66.47811 | 40842 ft | 507 kts | 113° |
| 2026-05-08 09:11 | 22.02119 | 66.54833 | 40842 ft | 507 kts | 113° |
| 2026-05-08 09:11 | 21.99343 | 66.61806 | 40841 ft | 508 kts | 113° |
| 2026-05-08 09:12 | 21.96549 | 66.68806 | 40841 ft | 506 kts | 113° |
| 2026-05-08 09:12 | 21.93768 | 66.75769 | 40842 ft | 505 kts | 113° |
| 2026-05-08 09:13 | 21.90988 | 66.82722 | 40841 ft | 505 kts | 113° |
| 2026-05-08 09:13 | 21.88206 | 66.89671 | 40841 ft | 505 kts | 113° |
| 2026-05-08 09:14 | 21.85422 | 66.96615 | 40848 ft | 506 kts | 114° |
| 2026-05-08 09:14 | 21.82632 | 67.03562 | 40851 ft | 506 kts | 114° |
| 2026-05-08 09:15 | 21.79835 | 67.10516 | 40851 ft | 506 kts | 114° |
| 2026-05-08 09:15 | 21.77030 | 67.17482 | 40851 ft | 506 kts | 114° |
| 2026-05-08 09:16 | 21.74224 | 67.24439 | 40850 ft | 507 kts | 114° |
| 2026-05-08 09:16 | 21.71414 | 67.31396 | 40850 ft | 508 kts | 114° |
| 2026-05-08 09:17 | 21.68596 | 67.38362 | 40850 ft | 508 kts | 114° |
| 2026-05-08 09:17 | 21.65776 | 67.45323 | 40851 ft | 509 kts | 114° |
| 2026-05-08 09:18 | 21.62952 | 67.52286 | 40844 ft | 509 kts | 114° |
| 2026-05-08 09:18 | 21.60117 | 67.59263 | 40841 ft | 509 kts | 114° |
| 2026-05-08 09:19 | 21.57280 | 67.66232 | 40841 ft | 509 kts | 114° |
| 2026-05-08 09:19 | 21.54440 | 67.73204 | 40841 ft | 510 kts | 114° |
| 2026-05-08 09:20 | 21.51596 | 67.80180 | 40850 ft | 510 kts | 114° |
| 2026-05-08 09:20 | 21.48749 | 67.87153 | 40851 ft | 510 kts | 114° |
| 2026-05-08 09:21 | 21.45898 | 67.94121 | 40850 ft | 510 kts | 114° |
| 2026-05-08 09:23 | 21.36384 | 68.17308 | 40851 ft | 510 kts | 114° |
| 2026-05-08 09:23 | 21.33602 | 68.24302 | 40851 ft | 510 kts | 112° |
| 2026-05-08 09:24 | 21.30871 | 68.31298 | 40850 ft | 509 kts | 113° |
| 2026-05-08 09:24 | 21.28121 | 68.38304 | 40850 ft | 509 kts | 113° |
| 2026-05-08 09:25 | 21.25369 | 68.45290 | 40851 ft | 509 kts | 113° |
| 2026-05-08 09:25 | 21.22615 | 68.52268 | 40851 ft | 508 kts | 113° |
| 2026-05-08 09:26 | 21.19861 | 68.59235 | 40850 ft | 508 kts | 113° |
| 2026-05-08 09:26 | 21.17105 | 68.66199 | 40850 ft | 508 kts | 113° |
| 2026-05-08 09:27 | 21.14347 | 68.73158 | 40850 ft | 507 kts | 113° |
| 2026-05-08 09:27 | 21.11585 | 68.80114 | 40851 ft | 507 kts | 113° |
| 2026-05-08 09:28 | 21.08819 | 68.87071 | 40850 ft | 507 kts | 113° |
| 2026-05-08 09:28 | 21.06052 | 68.94021 | 40851 ft | 507 kts | 113° |
| 2026-05-08 09:29 | 21.03286 | 69.00957 | 40851 ft | 507 kts | 113° |
| 2026-05-08 09:29 | 21.00517 | 69.07895 | 40851 ft | 506 kts | 113° |
| 2026-05-08 09:30 | 20.97745 | 69.14831 | 40851 ft | 506 kts | 113° |
| 2026-05-08 09:30 | 20.94971 | 69.21760 | 40850 ft | 506 kts | 113° |
| 2026-05-08 09:31 | 20.92194 | 69.28689 | 40850 ft | 506 kts | 113° |
| 2026-05-08 09:31 | 20.89422 | 69.35598 | 40850 ft | 506 kts | 113° |
| 2026-05-08 09:32 | 20.86640 | 69.42521 | 40851 ft | 506 kts | 113° |
| 2026-05-08 09:32 | 20.83876 | 69.49388 | 40851 ft | 506 kts | 113° |
| 2026-05-08 09:33 | 20.81088 | 69.56304 | 40850 ft | 506 kts | 114° |
| 2026-05-08 09:33 | 20.78303 | 69.63208 | 40851 ft | 506 kts | 113° |
| 2026-05-08 09:34 | 20.75520 | 69.70094 | 40850 ft | 505 kts | 114° |
| 2026-05-08 09:34 | 20.72725 | 69.76999 | 40850 ft | 505 kts | 114° |
| 2026-05-08 09:35 | 20.69932 | 69.83891 | 40842 ft | 505 kts | 114° |
| 2026-05-08 09:35 | 20.67141 | 69.90770 | 40841 ft | 505 kts | 114° |
| 2026-05-08 09:36 | 20.64349 | 69.97643 | 40841 ft | 505 kts | 114° |
| 2026-05-08 09:36 | 20.61554 | 70.04510 | 40841 ft | 504 kts | 114° |
| 2026-05-08 09:37 | 20.58752 | 70.11387 | 40839 ft | 505 kts | 114° |
| 2026-05-08 09:37 | 20.55965 | 70.18218 | 40832 ft | 505 kts | 114° |
| 2026-05-08 09:38 | 20.53144 | 70.25124 | 40832 ft | 505 kts | 114° |
| 2026-05-08 09:38 | 20.50336 | 70.31993 | 40832 ft | 505 kts | 114° |
| 2026-05-08 09:39 | 20.47524 | 70.38859 | 40832 ft | 505 kts | 114° |
| 2026-05-08 09:39 | 20.44708 | 70.45726 | 40832 ft | 505 kts | 114° |
| 2026-05-08 09:40 | 20.41893 | 70.52581 | 40832 ft | 505 kts | 114° |
| 2026-05-08 09:40 | 20.39071 | 70.59445 | 40832 ft | 505 kts | 114° |
| 2026-05-08 09:41 | 20.36269 | 70.66248 | 40832 ft | 506 kts | 114° |
| 2026-05-08 09:41 | 20.33438 | 70.73116 | 40832 ft | 506 kts | 114° |
| 2026-05-08 09:42 | 20.30605 | 70.79980 | 40832 ft | 506 kts | 114° |
| 2026-05-08 09:42 | 20.27770 | 70.86838 | 40832 ft | 506 kts | 114° |
| 2026-05-08 09:43 | 20.24935 | 70.93687 | 40832 ft | 507 kts | 114° |
| 2026-05-08 09:43 | 20.22088 | 71.00555 | 40823 ft | 507 kts | 114° |
| 2026-05-08 09:44 | 20.19241 | 71.07417 | 40624 ft | 506 kts | 114° |
| 2026-05-08 09:44 | 20.17818 | 71.10843 | 40194 ft | 505 kts | 114° |
| 2026-05-08 09:44 | 20.16395 | 71.14265 | 39412 ft | 507 kts | 114° |
| 2026-05-08 09:44 | 20.14972 | 71.17687 | 38701 ft | 507 kts | 114° |
| 2026-05-08 09:45 | 20.13541 | 71.21126 | 38014 ft | 507 kts | 114° |
| 2026-05-08 09:45 | 20.12112 | 71.24559 | 37316 ft | 508 kts | 114° |
| 2026-05-08 09:45 | 20.10682 | 71.27991 | 36605 ft | 508 kts | 114° |
| 2026-05-08 09:45 | 20.09248 | 71.31434 | 35886 ft | 509 kts | 114° |
| 2026-05-08 09:46 | 20.07807 | 71.34885 | 35127 ft | 510 kts | 114° |
| 2026-05-08 09:46 | 20.06366 | 71.38335 | 34296 ft | 513 kts | 113° |
| 2026-05-08 09:46 | 20.04912 | 71.41814 | 33437 ft | 516 kts | 113° |
| 2026-05-08 09:46 | 20.03452 | 71.45304 | 32656 ft | 517 kts | 113° |
| 2026-05-08 09:47 | 20.01995 | 71.48788 | 32057 ft | 514 kts | 113° |
| 2026-05-08 09:47 | 20.00547 | 71.52247 | 31453 ft | 511 kts | 113° |
| 2026-05-08 09:47 | 19.99113 | 71.55672 | 30834 ft | 508 kts | 113° |
| 2026-05-08 09:47 | 19.97677 | 71.59096 | 30211 ft | 506 kts | 113° |
| 2026-05-08 09:48 | 19.96246 | 71.62507 | 29600 ft | 503 kts | 113° |
| 2026-05-08 09:48 | 19.94835 | 71.65867 | 29001 ft | 500 kts | 113° |
| 2026-05-08 09:48 | 19.93412 | 71.69253 | 28392 ft | 497 kts | 113° |
| 2026-05-08 09:48 | 19.92005 | 71.72602 | 27791 ft | 494 kts | 113° |
| 2026-05-08 09:49 | 19.90609 | 71.75925 | 27208 ft | 491 kts | 113° |
| 2026-05-08 09:49 | 19.89223 | 71.79218 | 26616 ft | 488 kts | 113° |
| 2026-05-08 09:49 | 19.87841 | 71.82502 | 26026 ft | 484 kts | 113° |
| 2026-05-08 09:49 | 19.86470 | 71.85755 | 25442 ft | 481 kts | 113° |
| 2026-05-08 09:50 | 19.85111 | 71.88976 | 24970 ft | 475 kts | 113° |
| 2026-05-08 09:50 | 19.83775 | 71.92145 | 24659 ft | 465 kts | 113° |
| 2026-05-08 09:50 | 19.82468 | 71.95241 | 24406 ft | 454 kts | 113° |
| 2026-05-08 09:50 | 19.81192 | 71.98263 | 24170 ft | 443 kts | 113° |
| 2026-05-08 09:51 | 19.79947 | 72.01208 | 23931 ft | 432 kts | 113° |
| 2026-05-08 09:51 | 19.78736 | 72.04074 | 23732 ft | 421 kts | 113° |
| 2026-05-08 09:51 | 19.77489 | 72.06842 | 23432 ft | 408 kts | 119° |
| 2026-05-08 09:51 | 19.75746 | 72.09141 | 22949 ft | 393 kts | 136° |
| 2026-05-08 09:52 | 19.73776 | 72.11051 | 22600 ft | 376 kts | 139° |
| 2026-05-08 09:52 | 19.71820 | 72.12882 | 22202 ft | 374 kts | 139° |
| 2026-05-08 09:52 | 19.69876 | 72.14705 | 21819 ft | 372 kts | 138° |
| 2026-05-08 09:52 | 19.67948 | 72.16525 | 21416 ft | 370 kts | 137° |
| 2026-05-08 09:53 | 19.66054 | 72.18326 | 21012 ft | 368 kts | 138° |
| 2026-05-08 09:53 | 19.64140 | 72.20129 | 20607 ft | 364 kts | 138° |
| 2026-05-08 09:53 | 19.62259 | 72.21909 | 20208 ft | 362 kts | 138° |
| 2026-05-08 09:53 | 19.60376 | 72.23678 | 19822 ft | 359 kts | 137° |
| 2026-05-08 09:54 | 19.58527 | 72.25432 | 19419 ft | 353 kts | 137° |
| 2026-05-08 09:54 | 19.56713 | 72.27170 | 19025 ft | 350 kts | 137° |
| 2026-05-08 09:54 | 19.54906 | 72.28884 | 18639 ft | 346 kts | 137° |
| 2026-05-08 09:54 | 19.53128 | 72.30569 | 18254 ft | 342 kts | 137° |
| 2026-05-08 09:55 | 19.51360 | 72.32244 | 17880 ft | 338 kts | 136° |
| 2026-05-08 09:55 | 19.49616 | 72.33896 | 17484 ft | 335 kts | 136° |
| 2026-05-08 09:55 | 19.47885 | 72.35536 | 17116 ft | 332 kts | 136° |
| 2026-05-08 09:55 | 19.46170 | 72.37159 | 16750 ft | 329 kts | 136° |
| 2026-05-08 09:56 | 19.44473 | 72.38766 | 16389 ft | 326 kts | 137° |
| 2026-05-08 09:56 | 19.42790 | 72.40360 | 16011 ft | 324 kts | 137° |
| 2026-05-08 09:56 | 19.41114 | 72.41945 | 15642 ft | 321 kts | 137° |
| 2026-05-08 09:56 | 19.39453 | 72.43515 | 15272 ft | 319 kts | 137° |
| 2026-05-08 09:57 | 19.36168 | 72.46620 | 14551 ft | 314 kts | 137° |
| 2026-05-08 09:57 | 19.34545 | 72.48155 | 14193 ft | 312 kts | 137° |
| 2026-05-08 09:57 | 19.32935 | 72.49677 | 13837 ft | 310 kts | 137° |
| 2026-05-08 09:58 | 19.31331 | 72.51190 | 13488 ft | 307 kts | 137° |
| 2026-05-08 09:58 | 19.29739 | 72.52693 | 13137 ft | 305 kts | 137° |
| 2026-05-08 09:58 | 19.28168 | 72.54175 | 12883 ft | 298 kts | 137° |
| 2026-05-08 09:58 | 19.26650 | 72.55605 | 12742 ft | 287 kts | 137° |
| 2026-05-08 09:59 | 19.25189 | 72.56984 | 12522 ft | 279 kts | 137° |
| 2026-05-08 09:59 | 19.23751 | 72.58341 | 12221 ft | 276 kts | 136° |
| 2026-05-08 09:59 | 19.22407 | 72.59776 | 11907 ft | 273 kts | 125° |
| 2026-05-08 09:59 | 19.21662 | 72.61562 | 11691 ft | 263 kts | 98° |
| 2026-05-08 10:00 | 19.21539 | 72.63520 | 11669 ft | 271 kts | 90° |
| 2026-05-08 10:00 | 19.21533 | 72.65531 | 11651 ft | 274 kts | 90° |
| 2026-05-08 10:00 | 19.21534 | 72.67493 | 11637 ft | 274 kts | 90° |
| 2026-05-08 10:00 | 19.21531 | 72.69557 | 11603 ft | 274 kts | 90° |
| 2026-05-08 10:01 | 19.21525 | 72.71577 | 11569 ft | 274 kts | 90° |
| 2026-05-08 10:01 | 19.21515 | 72.73592 | 11530 ft | 274 kts | 90° |
| 2026-05-08 10:01 | 19.21505 | 72.75601 | 11498 ft | 274 kts | 90° |
| 2026-05-08 10:01 | 19.21493 | 72.77604 | 11456 ft | 273 kts | 90° |
| 2026-05-08 10:02 | 19.21482 | 72.79626 | 11425 ft | 273 kts | 90° |
| 2026-05-08 10:02 | 19.21470 | 72.81635 | 11380 ft | 273 kts | 90° |
| 2026-05-08 10:02 | 19.21457 | 72.83647 | 11345 ft | 273 kts | 90° |
| 2026-05-08 10:02 | 19.21443 | 72.85631 | 11309 ft | 273 kts | 90° |
| 2026-05-08 10:03 | 19.21426 | 72.87635 | 11269 ft | 273 kts | 90° |
| 2026-05-08 10:03 | 19.21411 | 72.89643 | 11223 ft | 273 kts | 90° |
| 2026-05-08 10:03 | 19.21399 | 72.91639 | 11185 ft | 272 kts | 90° |
| 2026-05-08 10:03 | 19.21390 | 72.93646 | 11154 ft | 272 kts | 90° |
| 2026-05-08 10:04 | 19.21381 | 72.95656 | 11105 ft | 273 kts | 90° |
| 2026-05-08 10:04 | 19.21364 | 72.97673 | 11070 ft | 274 kts | 90° |
| 2026-05-08 10:04 | 19.21347 | 72.99682 | 11034 ft | 273 kts | 90° |
| 2026-05-08 10:04 | 19.21330 | 73.01689 | 10993 ft | 273 kts | 90° |
| 2026-05-08 10:05 | 19.21313 | 73.03703 | 10963 ft | 273 kts | 90° |
| 2026-05-08 10:05 | 19.21296 | 73.05712 | 10917 ft | 274 kts | 90° |
| 2026-05-08 10:05 | 19.21280 | 73.07727 | 10888 ft | 273 kts | 90° |
| 2026-05-08 10:05 | 19.21265 | 73.09737 | 10844 ft | 273 kts | 90° |
| 2026-05-08 10:06 | 19.21249 | 73.11747 | 10802 ft | 273 kts | 90° |
| 2026-05-08 10:06 | 19.21232 | 73.13755 | 10764 ft | 273 kts | 90° |
| 2026-05-08 10:06 | 19.21222 | 73.15086 | 10717 ft | 273 kts | 90° |
| 2026-05-08 10:06 | 19.21233 | 73.17091 | 10491 ft | 272 kts | 89° |
| 2026-05-08 10:07 | 19.21260 | 73.19088 | 10276 ft | 272 kts | 89° |
| 2026-05-08 10:07 | 19.21285 | 73.21088 | 10079 ft | 271 kts | 89° |
| 2026-05-08 10:07 | 19.21310 | 73.23077 | 9844 ft | 271 kts | 89° |
| 2026-05-08 10:07 | 19.21332 | 73.25072 | 9478 ft | 270 kts | 89° |
| 2026-05-08 10:08 | 19.21352 | 73.27051 | 9136 ft | 269 kts | 89° |
| 2026-05-08 10:08 | 19.21371 | 73.29025 | 8823 ft | 268 kts | 89° |
| 2026-05-08 10:08 | 19.21390 | 73.30996 | 8531 ft | 268 kts | 89° |
| 2026-05-08 10:08 | 19.21409 | 73.32966 | 8281 ft | 267 kts | 89° |
| 2026-05-08 10:09 | 19.21425 | 73.34927 | 8038 ft | 266 kts | 89° |
| 2026-05-08 10:09 | 19.21443 | 73.36878 | 7782 ft | 265 kts | 89° |
| 2026-05-08 10:09 | 19.21462 | 73.38825 | 7535 ft | 264 kts | 89° |
| 2026-05-08 10:09 | 19.21478 | 73.40763 | 7292 ft | 263 kts | 89° |
| 2026-05-08 10:10 | 19.21495 | 73.42657 | 7143 ft | 252 kts | 89° |
| 2026-05-08 10:10 | 19.21425 | 73.44472 | 6993 ft | 242 kts | 99° |
| 2026-05-08 10:10 | 19.20766 | 73.46078 | 6876 ft | 241 kts | 128° |
| 2026-05-08 10:10 | 19.19429 | 73.47117 | 6670 ft | 242 kts | 159° |
| 2026-05-08 10:11 | 19.17777 | 73.47377 | 6426 ft | 243 kts | 178° |
| 2026-05-08 10:11 | 19.16079 | 73.47324 | 6294 ft | 247 kts | 185° |
| 2026-05-08 10:11 | 19.14415 | 73.46820 | 6276 ft | 245 kts | 207° |
| 2026-05-08 10:11 | 19.13183 | 73.45692 | 6259 ft | 229 kts | 236° |
| 2026-05-08 10:12 | 19.12625 | 73.44173 | 6170 ft | 220 kts | 260° |
| 2026-05-08 10:12 | 19.12435 | 73.42570 | 6007 ft | 220 kts | 266° |
| 2026-05-08 10:12 | 19.12417 | 73.40957 | 5868 ft | 220 kts | 273° |
| 2026-05-08 10:12 | 19.12574 | 73.39353 | 5730 ft | 218 kts | 280° |
| 2026-05-08 10:13 | 19.12894 | 73.37796 | 5610 ft | 217 kts | 286° |
| 2026-05-08 10:13 | 19.13356 | 73.36272 | 5453 ft | 218 kts | 289° |
| 2026-05-08 10:13 | 19.13526 | 73.34679 | 5286 ft | 219 kts | 267° |
| 2026-05-08 10:13 | 19.13364 | 73.33085 | 5129 ft | 218 kts | 262° |
| 2026-05-08 10:14 | 19.12915 | 73.31590 | 4978 ft | 218 kts | 246° |
| 2026-05-08 10:14 | 19.12283 | 73.30102 | 4833 ft | 218 kts | 246° |
| 2026-05-08 10:14 | 19.11660 | 73.28644 | 4672 ft | 217 kts | 246° |
| 2026-05-08 10:14 | 19.11040 | 73.27193 | 4522 ft | 216 kts | 247° |
| 2026-05-08 10:15 | 19.10478 | 73.25727 | 4451 ft | 216 kts | 250° |
| 2026-05-08 10:15 | 19.09985 | 73.24223 | 4445 ft | 215 kts | 254° |
| 2026-05-08 10:15 | 19.09632 | 73.22688 | 4444 ft | 215 kts | 260° |
| 2026-05-08 10:15 | 19.09430 | 73.21138 | 4440 ft | 214 kts | 266° |
| 2026-05-08 10:16 | 19.09347 | 73.19557 | 4444 ft | 214 kts | 269° |
| 2026-05-08 10:16 | 19.09313 | 73.17990 | 4441 ft | 211 kts | 270° |
| 2026-05-08 10:16 | 19.09285 | 73.16476 | 4456 ft | 202 kts | 270° |
| 2026-05-08 10:16 | 19.09263 | 73.14990 | 4460 ft | 202 kts | 270° |
| 2026-05-08 10:17 | 19.09243 | 73.13508 | 4461 ft | 202 kts | 270° |
| 2026-05-08 10:17 | 19.09220 | 73.12027 | 4455 ft | 202 kts | 270° |
| 2026-05-08 10:17 | 19.09200 | 73.10564 | 4310 ft | 201 kts | 270° |
| 2026-05-08 10:17 | 19.09180 | 73.09090 | 4054 ft | 200 kts | 270° |
| 2026-05-08 10:18 | 19.09159 | 73.07623 | 3771 ft | 199 kts | 270° |
| 2026-05-08 10:18 | 19.09138 | 73.06169 | 3464 ft | 197 kts | 270° |
| 2026-05-08 10:18 | 19.09117 | 73.04722 | 3180 ft | 196 kts | 270° |
| 2026-05-08 10:18 | 19.09098 | 73.03282 | 2915 ft | 195 kts | 271° |
| 2026-05-08 10:19 | 19.09079 | 73.01858 | 2659 ft | 193 kts | 270° |
| 2026-05-08 10:19 | 19.09058 | 73.00452 | 2405 ft | 189 kts | 270° |
| 2026-05-08 10:19 | 19.09039 | 72.99082 | 2148 ft | 183 kts | 270° |
| 2026-05-08 10:20 | 19.09003 | 72.96471 | 1677 ft | 169 kts | 271° |
| 2026-05-08 10:20 | 19.08986 | 72.95269 | 1460 ft | 157 kts | 271° |
| 2026-05-08 10:20 | 19.08971 | 72.94161 | 1259 ft | 145 kts | 271° |
| 2026-05-08 10:20 | 19.08957 | 72.93141 | 1073 ft | 134 kts | 271° |
| 2026-05-08 10:21 | 19.08946 | 72.92172 | 906 ft | 130 kts | 271° |
| 2026-05-08 10:21 | 19.08932 | 72.91212 | 735 ft | 131 kts | 271° |
| 2026-05-08 10:21 | 19.08919 | 72.90257 | 568 ft | 130 kts | 270° |
| 2026-05-08 10:21 | 19.08905 | 72.89291 | 385 ft | 132 kts | 271° |
| 2026-05-08 10:22 | 19.08894 | 72.88320 | 202 ft | 133 kts | 270° |
| 2026-05-08 10:22 | 19.08873 | 72.87348 | 60 ft | 130 kts | 270° |
| 2026-05-08 10:22 | 19.08866 | 72.86505 | 53 ft | 91 kts | 269° |
| 2026-05-08 10:22 | 19.08862 | 72.86020 | 53 ft | 41 kts | 275° |
| 2026-05-08 10:23 | 19.08940 | 72.85843 | 50 ft | 13 kts | 302° |
| 2026-05-08 10:23 | 19.09004 | 72.85826 | 55 ft | 9 kts | 39° |
| 2026-05-08 10:23 | 19.09027 | 72.85897 | 53 ft | 12 kts | 85° |
| 2026-05-08 10:23 | 19.09033 | 72.85993 | 52 ft | 14 kts | 89° |
| 2026-05-08 10:24 | 19.09035 | 72.86109 | 55 ft | 17 kts | 89° |
| 2026-05-08 10:24 | 19.09035 | 72.86244 | 55 ft | 19 kts | 89° |
| 2026-05-08 10:24 | 19.09093 | 72.86371 | 54 ft | 21 kts | 49° |
| 2026-05-08 10:24 | 19.09190 | 72.86491 | 55 ft | 22 kts | 48° |
| 2026-05-08 10:25 | 19.09278 | 72.86595 | 55 ft | 19 kts | 48° |
| 2026-05-08 10:25 | 19.09371 | 72.86709 | 55 ft | 20 kts | 49° |
| 2026-05-08 10:25 | 19.09421 | 72.86793 | 55 ft | 12 kts | 91° |
| 2026-05-08 10:25 | 19.09431 | 72.86885 | 49 ft | 14 kts | 60° |
| 2026-05-08 10:26 | 19.09466 | 72.86944 | 49 ft | 7 kts | 80° |
| 2026-05-08 10:26 | 19.09450 | 72.86994 | 49 ft | 6 kts | 123° |
| 2026-05-08 10:26 | 19.09435 | 72.87017 | 49 ft | 3 kts | 124° |
| 2026-05-08 10:26 | 19.09431 | 72.87022 | 55 ft | 0 kts | 125° |
| 2026-05-08 10:27 | 19.09432 | 72.87023 | 55 ft | 0 kts | 127° |